createdAt,value
2023-03-17T00:01:31.913Z,28.50
2023-03-17T00:04:16.197Z,24.00
2023-03-17T00:06:54.700Z,22.30
2023-03-17T00:09:32.425Z,20.10
2023-03-17T00:12:15.849Z,21.20
2023-03-17T00:14:53.763Z,21.10
2023-03-17T00:17:31.531Z,24.10
2023-03-17T00:20:02.684Z,24.30
2023-03-17T00:22:50.408Z,17.90
2023-03-17T00:25:34.993Z,14.50
2023-03-17T00:28:22.887Z,10.70
2023-03-17T00:31:00.241Z,14.80
2023-03-17T00:33:37.605Z,25.60
2023-03-17T00:36:19.488Z,26.60
2023-03-17T00:38:56.111Z,25.00
2023-03-17T00:41:34.141Z,22.00
2023-03-17T00:44:12.627Z,30.60
2023-03-17T00:46:51.017Z,39.50
2023-03-17T00:49:29.046Z,38.40
2023-03-17T00:52:07.726Z,41.60
2023-03-17T00:54:45.631Z,36.70
2023-03-17T00:57:23.105Z,36.60
2023-03-17T01:00:01.953Z,21.30
2023-03-17T01:02:39.116Z,30.50
2023-03-17T01:05:16.796Z,26.40
2023-03-17T01:07:59.224Z,33.30
2023-03-17T01:10:37.597Z,28.10
2023-03-17T01:13:16.856Z,30.90
2023-03-17T01:15:54.603Z,29.20
2023-03-17T01:18:33.305Z,16.20
2023-03-17T01:21:13.053Z,30.30
2023-03-17T01:23:50.501Z,15.00
2023-03-17T01:26:20.693Z,33.60
2023-03-17T01:28:57.402Z,30.30
2023-03-17T01:31:35.909Z,33.40
2023-03-17T01:34:13.697Z,37.00
2023-03-17T01:36:51.059Z,31.70
2023-03-17T01:39:23.455Z,36.30
2023-03-17T01:42:04.557Z,37.30
2023-03-17T01:45:03.821Z,35.20
2023-03-17T01:47:38.538Z,20.70
2023-03-17T01:50:16.404Z,42.30
2023-03-17T01:52:54.323Z,23.20
2023-03-17T01:55:31.822Z,37.10
2023-03-17T01:58:11.256Z,45.70
2023-03-17T02:00:48.986Z,40.90
2023-03-17T02:03:28.687Z,40.80
2023-03-17T02:06:07.821Z,45.70
2023-03-17T02:08:45.111Z,47.30
2023-03-17T02:11:24.192Z,43.20
2023-03-17T02:14:02.173Z,53.30
2023-03-17T02:16:39.411Z,33.30
2023-03-17T02:19:17.439Z,53.80
2023-03-17T02:22:00.727Z,28.90
2023-03-17T02:24:59.823Z,39.70
2023-03-17T02:27:42.440Z,51.50
2023-03-17T02:30:24.089Z,50.90
2023-03-17T02:32:59.291Z,52.70
2023-03-17T02:35:37.143Z,57.60
2023-03-17T02:38:15.264Z,41.20
2023-03-17T02:40:46.175Z,53.50
2023-03-17T02:43:24.488Z,24.80
2023-03-17T02:46:01.697Z,61.30
2023-03-17T02:48:40.387Z,58.40
2023-03-17T02:51:17.154Z,56.50
2023-03-17T02:53:54.420Z,65.30
2023-03-17T02:56:24.680Z,43.60
2023-03-17T02:58:59.800Z,67.50
2023-03-17T03:01:31.635Z,65.70
2023-03-17T03:04:10.736Z,59.90
2023-03-17T03:06:47.899Z,66.10
2023-03-17T03:09:26.025Z,63.40
2023-03-17T03:12:02.824Z,48.10
2023-03-17T03:14:40.075Z,72.40
2023-03-17T03:17:17.366Z,70.80
2023-03-17T03:19:54.121Z,58.50
2023-03-17T03:22:24.900Z,45.60
2023-03-17T03:25:01.636Z,34.00
2023-03-17T03:27:39.779Z,39.90
2023-03-17T03:30:18.539Z,64.90
2023-03-17T03:32:56.597Z,65.30
2023-03-17T03:35:34.712Z,53.20
2023-03-17T03:38:12.874Z,38.20
2023-03-17T03:40:50.127Z,58.60
2023-03-17T03:43:27.455Z,34.10
2023-03-17T03:46:05.513Z,38.40
2023-03-17T03:48:42.835Z,59.70
2023-03-17T03:51:20.223Z,63.10
2023-03-17T03:53:58.223Z,63.10
2023-03-17T03:56:35.897Z,67.30
2023-03-17T03:59:06.670Z,66.40
2023-03-17T04:01:42.402Z,60.70
2023-03-17T04:04:20.412Z,65.90
2023-03-17T04:06:57.382Z,56.00
2023-03-17T04:09:35.460Z,58.00
2023-03-17T04:12:14.146Z,58.00
2023-03-17T04:14:45.500Z,29.20
2023-03-17T04:17:23.988Z,16.20
2023-03-17T04:20:01.772Z,59.10
2023-03-17T04:22:39.393Z,29.70
2023-03-17T04:25:19.046Z,70.10
2023-03-17T04:27:56.531Z,63.50
2023-03-17T04:30:27.040Z,47.90
2023-03-17T04:33:03.460Z,60.00
2023-03-17T04:35:41.891Z,42.20
2023-03-17T04:38:19.766Z,28.40
2023-03-17T04:40:56.481Z,59.00
2023-03-17T04:43:33.470Z,58.50
2023-03-17T04:46:12.031Z,40.80
2023-03-17T04:48:49.121Z,36.60
2023-03-17T04:51:27.770Z,64.10
2023-03-17T04:54:06.330Z,62.60
2023-03-17T04:56:43.532Z,45.90
2023-03-17T04:59:21.426Z,55.80
2023-03-17T05:01:51.952Z,47.30
2023-03-17T05:04:31.649Z,47.20
2023-03-17T05:07:05.582Z,35.10
2023-03-17T05:09:42.877Z,53.60
2023-03-17T05:12:20.761Z,46.10
2023-03-17T05:14:58.939Z,35.70
2023-03-17T05:17:36.599Z,53.80
2023-03-17T05:20:15.135Z,49.60
2023-03-17T05:22:52.360Z,47.50
2023-03-17T05:25:29.624Z,25.20
2023-03-17T05:28:08.096Z,55.90
2023-03-17T05:30:48.309Z,53.50
2023-03-17T05:33:25.770Z,39.90
2023-03-17T05:36:02.835Z,47.60
2023-03-17T05:38:33.441Z,42.20
2023-03-17T05:41:06.422Z,44.30
2023-03-17T05:43:43.999Z,28.20
2023-03-17T05:46:22.696Z,46.80
2023-03-17T05:48:53.387Z,16.80
2023-03-17T05:51:32.494Z,38.10
2023-03-17T05:54:11.163Z,43.80
2023-03-17T05:56:49.086Z,44.20
2023-03-17T05:59:27.434Z,23.60
2023-03-17T06:02:07.333Z,36.90
2023-03-17T06:04:50.546Z,29.00
2023-03-17T06:07:44.621Z,36.80
2023-03-17T06:10:27.461Z,36.40
2023-03-17T06:13:06.772Z,33.60
2023-03-17T06:15:48.969Z,28.10
2023-03-17T06:18:26.654Z,41.80
2023-03-17T06:21:04.025Z,35.40
2023-03-17T06:23:42.027Z,37.80
2023-03-17T06:26:20.500Z,30.20
2023-03-17T06:28:58.819Z,22.90
2023-03-17T06:31:37.016Z,30.50
2023-03-17T06:34:16.735Z,35.90
2023-03-17T06:36:56.294Z,22.80
2023-03-17T06:39:34.269Z,32.90
2023-03-17T06:42:12.178Z,41.20
2023-03-17T06:44:53.142Z,33.90
2023-03-17T06:47:31.166Z,18.70
2023-03-17T06:50:11.812Z,27.00
2023-03-17T06:52:49.670Z,27.60
2023-03-17T06:55:27.761Z,17.50
2023-03-17T06:58:05.574Z,24.40
2023-03-17T07:00:46.433Z,28.10
2023-03-17T07:03:26.290Z,14.80
2023-03-17T07:06:04.215Z,20.30
2023-03-17T07:08:42.095Z,35.70
2023-03-17T07:11:13.484Z,36.70
2023-03-17T07:13:48.918Z,28.10
2023-03-17T07:16:28.271Z,39.10
2023-03-17T07:19:07.612Z,27.50
2023-03-17T07:21:47.088Z,27.20
2023-03-17T07:24:26.096Z,22.20
2023-03-17T07:27:04.606Z,26.20
2023-03-17T07:29:42.359Z,32.10
2023-03-17T07:32:20.622Z,33.50
2023-03-17T07:34:59.716Z,24.00
2023-03-17T07:37:36.997Z,13.30
2023-03-17T07:40:17.442Z,40.20
2023-03-17T07:45:36.319Z,23.80
2023-03-17T07:48:15.097Z,22.20
2023-03-17T07:50:54.498Z,14.80
2023-03-17T07:53:34.113Z,20.90
2023-03-17T07:56:13.559Z,27.60
2023-03-17T07:58:52.566Z,18.90
2023-03-17T08:01:32.696Z,21.00
2023-03-17T08:04:14.801Z,14.60
2023-03-17T08:06:52.995Z,15.50
2023-03-17T08:09:30.979Z,17.70
2023-03-17T08:12:11.367Z,18.60
2023-03-17T08:17:28.124Z,18.00
2023-03-17T08:20:07.265Z,13.50
2023-03-17T08:22:46.026Z,17.10
2023-03-17T08:28:16.845Z,15.80
2023-03-17T08:31:12.471Z,20.80
2023-03-17T08:33:53.675Z,14.00
2023-03-17T08:36:31.213Z,9.50
2023-03-17T08:39:10.928Z,13.40
2023-03-17T08:41:51.608Z,13.00
2023-03-17T08:47:08.201Z,16.20
2023-03-17T08:49:46.394Z,16.10
2023-03-17T08:52:25.183Z,15.30
2023-03-17T08:55:02.964Z,17.30
2023-03-17T08:57:41.731Z,14.30
2023-03-17T09:00:22.153Z,17.60
2023-03-17T09:03:00.508Z,15.80
2023-03-17T09:05:38.743Z,15.90
2023-03-17T09:08:17.861Z,15.90
2023-03-17T09:10:57.480Z,13.20
2023-03-17T09:13:41.928Z,12.10
2023-03-17T09:16:24.064Z,15.70
2023-03-17T09:19:02.751Z,8.60
2023-03-17T09:21:41.352Z,11.60
2023-03-17T09:24:20.048Z,13.90
2023-03-17T09:27:00.448Z,11.30
2023-03-17T09:29:37.899Z,13.20
2023-03-17T09:32:15.926Z,10.20
2023-03-17T09:34:54.290Z,14.60
2023-03-17T09:37:34.847Z,8.80
2023-03-17T09:40:23.158Z,10.40
2023-03-17T09:43:28.275Z,13.10
2023-03-17T09:46:20.633Z,11.70
2023-03-17T09:49:28.239Z,11.60
2023-03-17T09:52:06.836Z,11.00
2023-03-17T09:54:39.039Z,13.70
2023-03-17T09:57:42.815Z,9.10
2023-03-17T10:00:30.117Z,9.90
2023-03-17T10:03:02.646Z,11.60
2023-03-17T10:05:41.505Z,7.90
2023-03-17T10:08:36.877Z,8.10
2023-03-17T10:11:44.187Z,9.10
2023-03-17T10:14:42.441Z,9.40
2023-03-17T10:17:28.225Z,6.70
2023-03-17T10:20:24.041Z,7.10
2023-03-17T10:23:15.094Z,8.20
2023-03-17T10:25:53.645Z,6.00
2023-03-17T10:28:41.218Z,7.00
2023-03-17T10:31:20.237Z,9.00
2023-03-17T10:33:59.317Z,7.60
2023-03-17T10:36:40.749Z,6.40
2023-03-17T10:39:20.504Z,10.60
2023-03-17T10:42:14.873Z,4.90
2023-03-17T10:45:08.057Z,5.70
2023-03-17T10:47:51.589Z,6.90
2023-03-17T10:50:36.884Z,5.40
2023-03-17T10:53:30.577Z,8.60
2023-03-17T10:56:47.711Z,7.30
2023-03-17T10:59:33.717Z,7.90
2023-03-17T11:02:38.986Z,7.80
2023-03-17T11:05:32.069Z,5.30
2023-03-17T11:08:22.747Z,7.90
2023-03-17T11:11:06.701Z,9.50
2023-03-17T11:13:44.458Z,3.30
2023-03-17T11:16:33.488Z,7.00
2023-03-17T11:19:17.585Z,9.10
2023-03-17T11:22:16.153Z,7.60
2023-03-17T11:25:24.412Z,5.00
2023-03-17T11:28:25.957Z,6.00
2023-03-17T11:31:31.388Z,5.90
2023-03-17T11:34:29.573Z,10.80
2023-03-17T11:37:47.840Z,7.10
2023-03-17T11:41:09.398Z,5.90
2023-03-17T11:44:20.005Z,5.70
2023-03-17T11:47:25.125Z,7.20
2023-03-17T11:50:16.165Z,9.00
2023-03-17T11:53:05.645Z,6.90
2023-03-17T11:56:03.328Z,8.10
2023-03-17T11:58:54.936Z,7.20
2023-03-17T12:01:47.234Z,7.70
2023-03-17T12:04:31.515Z,9.20
2023-03-17T12:07:27.113Z,11.00
2023-03-17T12:10:43.639Z,9.60
2023-03-17T12:13:42.107Z,8.00
2023-03-17T12:16:39.558Z,9.30
2023-03-17T12:19:20.344Z,4.80
2023-03-17T12:22:19.444Z,10.90
2023-03-17T12:25:28.275Z,16.90
2023-03-17T12:28:20.560Z,7.20
2023-03-17T12:31:29.813Z,12.40
2023-03-17T12:34:52.910Z,13.30
2023-03-17T12:37:33.837Z,9.70
2023-03-17T12:40:44.820Z,7.80
2023-03-17T12:44:13.471Z,12.40
2023-03-17T12:47:17.341Z,9.40
2023-03-17T12:50:12.401Z,10.10
2023-03-17T12:53:29.152Z,11.60
2023-03-17T12:56:28.065Z,11.60
2023-03-17T13:02:26.585Z,7.00
2023-03-17T13:05:11.076Z,13.30
2023-03-17T13:08:00.930Z,10.50
2023-03-17T13:10:53.394Z,10.60
2023-03-17T13:14:09.012Z,14.40
2023-03-17T13:16:48.309Z,5.70
2023-03-17T13:19:27.264Z,5.20
2023-03-17T13:22:02.002Z,9.60
2023-03-17T13:24:50.796Z,7.70
2023-03-17T13:27:41.987Z,7.70
2023-03-17T13:30:31.798Z,6.90
2023-03-17T13:33:24.114Z,8.40
2023-03-17T13:36:15.414Z,7.20
2023-03-17T13:39:25.001Z,10.50
2023-03-17T13:42:22.825Z,9.40
2023-03-17T13:45:14.574Z,10.50
2023-03-17T13:47:56.269Z,5.70
2023-03-17T13:50:39.180Z,9.00
2023-03-17T13:53:14.761Z,10.90
2023-03-17T13:56:25.662Z,12.00
2023-03-17T13:59:16.240Z,12.30
2023-03-17T14:02:29.389Z,10.40
2023-03-17T14:05:19.748Z,12.50
2023-03-17T14:08:03.151Z,10.50
2023-03-17T14:10:40.618Z,9.60
2023-03-17T14:13:57.341Z,11.00
2023-03-17T14:16:37.528Z,7.70
2023-03-17T14:19:27.117Z,10.50
2023-03-17T14:22:26.148Z,5.40
2023-03-17T14:25:09.309Z,10.40
2023-03-17T14:27:50.759Z,13.40
2023-03-17T14:30:36.518Z,14.30
2023-03-17T14:33:38.532Z,10.50
2023-03-17T14:36:17.274Z,10.70
2023-03-17T14:38:52.863Z,11.80
2023-03-17T14:41:29.434Z,14.90
2023-03-17T14:44:03.487Z,6.60
2023-03-17T14:46:38.193Z,10.30
2023-03-17T14:49:23.777Z,10.00
2023-03-17T14:52:03.510Z,14.60
2023-03-17T14:54:41.153Z,14.90
2023-03-17T14:57:23.573Z,12.80
2023-03-17T15:00:37.119Z,10.60
2023-03-17T15:03:32.432Z,7.80
2023-03-17T15:06:31.999Z,12.80
2023-03-17T15:09:29.849Z,7.70
2023-03-17T15:12:17.115Z,8.30
2023-03-17T15:15:08.971Z,10.70
2023-03-17T15:17:49.665Z,9.50
2023-03-17T15:23:25.558Z,8.70
2023-03-17T15:26:05.930Z,8.40
2023-03-17T15:28:43.459Z,6.40
2023-03-17T15:31:28.492Z,9.80
2023-03-17T15:34:04.084Z,6.10
2023-03-17T15:36:43.968Z,9.00
2023-03-17T15:39:22.252Z,8.20
2023-03-17T15:41:59.600Z,7.40
2023-03-17T15:44:37.683Z,5.90
2023-03-17T15:47:20.634Z,9.50
2023-03-17T15:50:02.175Z,12.60
2023-03-17T15:52:40.452Z,8.10
2023-03-17T15:55:32.814Z,7.00
2023-03-17T15:58:05.248Z,6.50
2023-03-17T16:00:42.883Z,7.10
2023-03-17T16:03:28.429Z,9.70
2023-03-17T16:06:05.907Z,10.30
2023-03-17T16:08:43.893Z,11.50
2023-03-17T16:11:21.136Z,6.80
2023-03-17T16:14:02.723Z,7.30
2023-03-17T16:16:46.249Z,7.00
2023-03-17T16:19:25.778Z,10.80
2023-03-17T16:22:04.253Z,11.90
2023-03-17T16:24:44.855Z,7.20
2023-03-17T16:27:23.481Z,6.40
2023-03-17T16:30:01.740Z,11.60
2023-03-17T16:32:40.151Z,49.60
2023-03-17T16:35:23.176Z,10.90
2023-03-17T16:38:01.769Z,7.90
2023-03-17T16:40:39.018Z,12.10
2023-03-17T16:43:32.839Z,8.40
2023-03-17T16:46:08.487Z,4.60
2023-03-17T16:48:46.148Z,12.10
2023-03-17T16:51:25.217Z,12.70
2023-03-17T16:54:03.581Z,7.40
2023-03-17T16:56:44.096Z,6.90
2023-03-17T16:59:33.149Z,16.90
2023-03-17T17:02:18.842Z,18.20
2023-03-17T17:04:51.112Z,9.20
2023-03-17T17:07:27.281Z,11.30
2023-03-17T17:10:06.779Z,12.60
2023-03-17T17:12:45.210Z,10.80
2023-03-17T17:15:25.022Z,10.80
2023-03-17T17:18:11.807Z,12.20
2023-03-17T17:20:49.080Z,10.20
2023-03-17T17:23:27.926Z,11.60
2023-03-17T17:26:06.661Z,12.40
2023-03-17T17:28:44.933Z,13.20
2023-03-17T17:31:25.314Z,14.00
2023-03-17T17:34:04.291Z,16.80
2023-03-17T17:36:43.186Z,14.50
2023-03-17T17:39:23.270Z,11.00
2023-03-17T17:42:03.105Z,10.40
2023-03-17T17:44:44.281Z,13.20
2023-03-17T17:47:23.900Z,14.70
2023-03-17T17:50:04.825Z,12.40
2023-03-17T17:52:46.048Z,14.20
2023-03-17T17:55:26.739Z,15.70
2023-03-17T17:58:06.344Z,17.40
2023-03-17T18:00:44.737Z,14.40
2023-03-17T18:03:25.554Z,17.80
2023-03-17T18:06:05.958Z,16.60
2023-03-17T18:08:44.596Z,14.80
2023-03-17T18:11:23.393Z,10.10
2023-03-17T18:14:02.773Z,16.40
2023-03-17T18:16:42.334Z,8.70
2023-03-17T18:19:21.484Z,14.40
2023-03-17T18:21:59.999Z,16.10
2023-03-17T18:24:37.978Z,12.60
2023-03-17T18:27:17.320Z,13.30
2023-03-17T18:29:57.149Z,16.00
2023-03-17T18:32:35.228Z,16.50
2023-03-17T18:35:18.169Z,15.40
2023-03-17T18:37:58.031Z,11.70
2023-03-17T18:40:36.845Z,17.00
2023-03-17T18:43:15.853Z,19.30
2023-03-17T18:45:54.170Z,13.50
2023-03-17T18:48:32.561Z,14.90
2023-03-17T18:51:11.654Z,9.00
2023-03-17T18:53:50.131Z,17.10
2023-03-17T18:56:30.203Z,15.40
2023-03-17T18:59:08.906Z,12.90
2023-03-17T19:01:47.478Z,16.00
2023-03-17T19:04:26.684Z,10.00
2023-03-17T19:07:06.461Z,9.60
2023-03-17T19:09:44.961Z,10.40
2023-03-17T19:12:23.047Z,13.20
2023-03-17T19:14:56.079Z,15.70
2023-03-17T19:17:31.998Z,15.60
2023-03-17T19:20:11.187Z,16.40
2023-03-17T19:22:48.346Z,12.50
2023-03-17T19:25:25.626Z,13.70
2023-03-17T19:28:03.686Z,17.20
2023-03-17T19:30:40.791Z,12.50
2023-03-17T19:33:18.917Z,21.50
2023-03-17T19:36:02.994Z,14.70
2023-03-17T19:38:41.142Z,19.70
2023-03-17T19:41:19.064Z,12.60
2023-03-17T19:43:57.180Z,14.80
2023-03-17T19:46:35.526Z,14.50
2023-03-17T19:49:13.423Z,20.00
2023-03-17T19:51:51.472Z,6.70
2023-03-17T19:54:30.325Z,14.30
2023-03-17T19:57:09.667Z,13.00
2023-03-17T19:59:47.689Z,18.10
2023-03-17T20:02:18.332Z,13.90
2023-03-17T20:04:53.255Z,17.30
2023-03-17T20:10:10.407Z,14.20
2023-03-17T20:12:48.301Z,20.30
2023-03-17T20:15:27.126Z,10.30
2023-03-17T20:18:04.980Z,10.80
2023-03-17T20:20:47.828Z,18.60
2023-03-17T20:23:26.952Z,14.00
2023-03-17T20:26:05.136Z,12.70
2023-03-17T20:28:43.371Z,9.00
2023-03-17T20:31:21.127Z,16.20
2023-03-17T20:33:58.752Z,16.80
2023-03-17T20:36:37.519Z,19.40
2023-03-17T20:39:21.075Z,16.30
2023-03-17T20:41:58.525Z,19.40
2023-03-17T20:44:36.917Z,14.10
2023-03-17T20:47:15.357Z,16.40
2023-03-17T20:49:55.215Z,10.30
2023-03-17T20:52:32.521Z,10.00
2023-03-17T20:55:14.381Z,9.90
2023-03-17T20:57:53.176Z,16.80
2023-03-17T21:00:32.802Z,7.10
2023-03-17T21:03:11.541Z,7.80
2023-03-17T21:05:48.989Z,8.20
2023-03-17T21:08:27.433Z,13.70
2023-03-17T21:10:57.695Z,18.70
2023-03-17T21:13:34.881Z,6.00
2023-03-17T21:16:24.338Z,5.80
2023-03-17T21:18:55.392Z,13.00
2023-03-17T21:21:33.295Z,10.60
2023-03-17T21:24:22.431Z,10.10
2023-03-17T21:26:56.152Z,14.20
2023-03-17T21:29:34.940Z,5.40
2023-03-17T21:32:07.359Z,17.00
2023-03-17T21:34:45.218Z,14.30
2023-03-17T21:37:22.892Z,8.90
2023-03-17T21:39:59.714Z,9.20
2023-03-17T21:42:36.686Z,11.70
2023-03-17T21:45:14.838Z,11.60
2023-03-17T21:47:52.635Z,10.10
2023-03-17T21:50:31.509Z,11.70
2023-03-17T21:53:10.395Z,9.00
2023-03-17T21:55:41.719Z,12.90
2023-03-17T21:58:16.364Z,11.20
2023-03-17T22:00:53.659Z,8.60
2023-03-17T22:03:32.971Z,8.70
2023-03-17T22:06:12.924Z,8.10
2023-03-17T22:08:50.958Z,9.50
2023-03-17T22:11:28.482Z,14.20
2023-03-17T22:14:06.903Z,10.70
2023-03-17T22:16:44.495Z,16.40
2023-03-17T22:19:22.370Z,13.80
2023-03-17T22:21:52.736Z,10.80
2023-03-17T22:24:23.614Z,11.20
2023-03-17T22:26:54.810Z,14.60
2023-03-17T22:29:32.700Z,9.80
2023-03-17T22:32:12.104Z,14.00
2023-03-17T22:34:48.860Z,7.20
2023-03-17T22:37:26.217Z,8.60
2023-03-17T22:40:06.839Z,9.70
2023-03-17T22:42:44.104Z,8.50
2023-03-17T22:45:21.673Z,6.70
2023-03-17T22:47:59.016Z,13.50
2023-03-17T22:50:35.453Z,10.00
2023-03-17T22:53:13.161Z,10.30
2023-03-17T22:55:51.233Z,12.10
2023-03-17T22:58:21.390Z,9.50
2023-03-17T23:00:57.363Z,9.40
2023-03-17T23:03:34.918Z,10.80
2023-03-17T23:06:13.571Z,8.50
2023-03-17T23:08:51.451Z,10.10
2023-03-17T23:11:31.524Z,7.70
2023-03-17T23:14:09.710Z,9.80
2023-03-17T23:16:48.501Z,10.70
2023-03-17T23:19:22.176Z,13.00
2023-03-17T23:22:00.274Z,12.00
2023-03-17T23:24:37.243Z,10.30
2023-03-17T23:27:15.666Z,9.50
2023-03-17T23:29:53.419Z,8.50
2023-03-17T23:32:32.196Z,4.30
2023-03-17T23:35:10.915Z,8.00
2023-03-17T23:37:48.114Z,10.80
2023-03-17T23:40:25.779Z,10.70
2023-03-17T23:43:05.966Z,6.60
2023-03-17T23:45:43.454Z,7.70
2023-03-17T23:48:13.728Z,6.70
2023-03-17T23:50:53.031Z,10.90
2023-03-17T23:53:28.940Z,10.20
2023-03-17T23:56:06.817Z,6.10
2023-03-17T23:58:44.323Z,6.90
